Time;durP1;ratioP1;P1;durP2;ratioP2;P2;SDS_P1;SDS_P2;PMS_P1;PMS_P2;Temp;Humidity;BMP_temperature;BMP_pressure;BME280_temperature;BME280_humidity;BME280_pressure;Samples;Min_cycle;Max_cycle;Signal;HPM_P1;HPM_P2
2022/06/11 00:00:18;;;;;;;0.00;0.00;;;21.90;77.30;;;;;;4213614;28;20058;-70
2022/06/11 00:02:40;;;;;;;0.00;0.00;;;21.90;77.40;;;;;;4212509;28;20060;-69
2022/06/11 00:05:04;;;;;;;0.00;0.00;;;21.90;77.50;;;;;;4213003;28;20998;-69
2022/06/11 00:07:26;;;;;;;0.00;0.00;;;21.90;77.50;;;;;;4213720;28;20051;-70
2022/06/11 00:09:49;;;;;;;0.00;0.00;;;21.90;77.60;;;;;;4213191;28;20116;-70
2022/06/11 00:12:12;;;;;;;0.00;0.00;;;21.90;77.60;;;;;;4196766;28;20515;-71
2022/06/11 00:14:35;;;;;;;0.43;0.43;;;21.90;78.50;;;;;;4196697;28;20130;-69
2022/06/11 00:17:00;;;;;;;0.00;0.00;;;21.90;77.60;;;;;;4196600;28;20137;-69
2022/06/11 00:19:23;;;;;;;1.17;0.47;;;21.90;77.60;;;;;;4196175;28;20416;-69
2022/06/11 00:21:45;;;;;;;0.00;0.00;;;21.90;77.70;;;;;;4196774;28;20064;-69
2022/06/11 00:24:08;;;;;;;0.00;0.00;;;21.90;77.70;;;;;;4213092;28;20048;-70
2022/06/11 00:26:30;;;;;;;0.00;0.00;;;21.90;77.60;;;;;;4213525;28;20147;-69
2022/06/11 00:28:52;;;;;;;0.00;0.00;;;21.90;77.70;;;;;;4213523;28;20059;-70
2022/06/11 00:31:14;;;;;;;0.03;0.03;;;21.90;77.70;;;;;;4213261;28;20431;-70
2022/06/11 00:33:38;;;;;;;0.00;0.00;;;21.90;78.50;;;;;;4212679;28;20056;-69
2022/06/11 00:36:00;;;;;;;0.10;0.10;;;21.90;78.40;;;;;;4210965;28;20058;-70
2022/06/11 00:38:22;;;;;;;0.10;0.10;;;21.90;77.60;;;;;;4213051;28;20056;-70
2022/06/11 00:40:46;;;;;;;0.10;0.10;;;21.90;77.60;;;;;;4212993;28;20056;-69
2022/06/11 00:43:09;;;;;;;0.00;0.00;;;21.90;78.50;;;;;;4212799;28;20067;-69
2022/06/11 00:45:34;;;;;;;0.00;0.00;;;21.90;77.70;;;;;;4214843;28;20125;-69
2022/06/11 00:48:00;;;;;;;0.00;0.00;;;21.90;77.80;;;;;;4216266;28;20409;-70
2022/06/11 00:50:27;;;;;;;0.20;0.20;;;21.90;77.80;;;;;;4215648;28;20078;-70
2022/06/11 00:52:50;;;;;;;0.95;0.95;;;21.90;77.80;;;;;;4216172;28;20861;-69
2022/06/11 00:55:19;;;;;;;0.10;0.10;;;21.90;78.00;;;;;;4216123;28;20523;-70
2022/06/11 00:57:44;;;;;;;0.00;0.00;;;21.90;78.00;;;;;;4214957;28;20067;-70
2022/06/11 01:00:12;;;;;;;0.00;0.00;;;21.90;78.00;;;;;;4216206;28;20056;-70
2022/06/11 01:02:35;;;;;;;0.00;0.00;;;21.90;78.00;;;;;;4215920;28;20051;-70
2022/06/11 01:04:59;;;;;;;0.00;0.00;;;21.80;78.00;;;;;;4216214;28;20040;-70
2022/06/11 01:07:53;;;;;;;0.00;0.00;;;21.80;78.00;;;;;;4215839;28;20044;-70
2022/06/11 01:10:31;;;;;;;0.00;0.00;;;21.80;78.00;;;;;;4215663;28;20109;-70
2022/06/11 01:13:01;;;;;;;0.00;0.00;;;21.80;77.90;;;;;;4216135;28;20080;-69
2022/06/11 01:15:28;;;;;;;0.30;0.30;;;21.80;77.90;;;;;;4215920;28;20054;-70
2022/06/11 01:18:01;;;;;;;0.00;0.00;;;21.80;78.00;;;;;;4215973;28;20059;-69
2022/06/11 01:20:39;;;;;;;0.10;0.10;;;21.80;78.00;;;;;;4215637;28;20074;-69
2022/06/11 01:23:38;;;;;;;0.95;0.95;;;21.80;78.00;;;;;;4215438;28;20070;-69
2022/06/11 01:26:14;;;;;;;0.00;0.00;;;21.80;77.90;;;;;;4215808;28;20067;-69
2022/06/11 01:28:48;;;;;;;0.00;0.00;;;21.80;78.00;;;;;;4215807;28;20064;-69
2022/06/11 01:31:20;;;;;;;0.15;0.15;;;21.80;78.00;;;;;;4214487;28;20070;-69
2022/06/11 01:33:50;;;;;;;0.00;0.00;;;21.80;78.00;;;;;;4215333;28;20056;-69
2022/06/11 01:36:18;;;;;;;0.00;0.00;;;21.70;78.00;;;;;;4215731;28;20048;-70
2022/06/11 01:38:47;;;;;;;0.00;0.00;;;21.70;78.10;;;;;;4215205;28;20377;-69
2022/06/11 01:41:25;;;;;;;0.20;0.20;;;21.70;78.10;;;;;;4215396;28;20055;-69
2022/06/11 01:43:49;;;;;;;0.00;0.00;;;21.70;78.10;;;;;;4214564;28;20588;-69
2022/06/11 01:46:17;;;;;;;0.20;0.20;;;21.70;79.00;;;;;;4215217;28;20054;-70
2022/06/11 01:48:51;;;;;;;0.00;0.00;;;21.70;78.00;;;;;;4214254;28;20059;-70
2022/06/11 01:51:37;;;;;;;0.00;0.00;;;21.70;78.00;;;;;;4214786;28;20500;-70
2022/06/11 01:54:21;;;;;;;0.00;0.00;;;21.70;78.10;;;;;;4213651;28;20051;-69
2022/06/11 01:57:29;;;;;;;0.00;0.00;;;21.70;78.00;;;;;;4214716;28;20135;-69
2022/06/11 02:00:10;;;;;;;0.00;0.00;;;21.70;78.00;;;;;;4187152;28;20070;-70
2022/06/11 02:03:07;;;;;;;0.00;0.00;;;21.70;77.90;;;;;;4214575;28;20462;-70
2022/06/11 02:05:52;;;;;;;0.00;0.00;;;21.70;78.00;;;;;;4215045;28;20052;-70
2022/06/11 02:08:21;;;;;;;0.00;0.00;;;21.70;78.00;;;;;;4214491;28;20059;-70
2022/06/11 02:10:52;;;;;;;0.22;0.22;;;21.70;78.00;;;;;;4213808;28;20512;-70
2022/06/11 02:13:18;;;;;;;0.00;0.00;;;21.70;78.00;;;;;;4215050;28;20059;-70
2022/06/11 02:15:44;;;;;;;0.00;0.00;;;21.70;78.00;;;;;;4214651;28;20106;-69
2022/06/11 02:18:11;;;;;;;0.30;0.30;;;21.60;77.90;;;;;;4213879;28;20486;-69
2022/06/11 02:20:39;;;;;;;0.00;0.00;;;21.70;77.90;;;;;;4214927;28;20056;-69
2022/06/11 02:23:05;;;;;;;0.43;0.43;;;21.70;77.90;;;;;;4214741;28;20055;-69
2022/06/11 02:25:31;;;;;;;0.00;0.00;;;21.60;77.80;;;;;;4214482;28;20051;-69
2022/06/11 02:27:57;;;;;;;0.00;0.00;;;21.60;77.80;;;;;;4214544;28;20420;-69
2022/06/11 02:30:24;;;;;;;0.00;0.00;;;21.70;77.80;;;;;;4213625;28;20058;-69
2022/06/11 02:32:46;;;;;;;0.00;0.00;;;21.70;77.70;;;;;;4214658;28;20113;-69
2022/06/11 02:35:14;;;;;;;0.00;0.00;;;21.60;77.70;;;;;;4213180;28;20523;-69
2022/06/11 02:37:39;;;;;;;0.30;0.30;;;21.60;77.70;;;;;;4214683;28;20117;-69
2022/06/11 02:40:07;;;;;;;0.38;0.38;;;21.60;77.60;;;;;;4214123;28;20055;-69
2022/06/11 02:42:31;;;;;;;0.00;0.00;;;21.60;77.60;;;;;;4213531;28;20498;-69
2022/06/11 02:44:54;;;;;;;0.00;0.00;;;21.60;77.50;;;;;;4214433;28;20127;-69
2022/06/11 02:47:16;;;;;;;0.08;0.08;;;21.60;77.50;;;;;;4213477;28;20504;-69
2022/06/11 02:49:39;;;;;;;0.00;0.00;;;21.60;77.50;;;;;;4214454;28;20419;-69
2022/06/11 02:52:07;;;;;;;0.00;0.00;;;21.60;77.50;;;;;;4214465;28;20499;-69
2022/06/11 02:54:29;;;;;;;0.98;0.98;;;21.60;77.40;;;;;;4213753;28;20059;-70
2022/06/11 02:56:54;;;;;;;0.00;0.00;;;21.60;77.40;;;;;;4214347;28;20056;-69
2022/06/11 02:59:17;;;;;;;0.15;0.15;;;21.60;77.40;;;;;;4214443;28;20206;-69
2022/06/11 03:01:41;;;;;;;0.00;0.00;;;21.60;77.40;;;;;;4214248;28;20060;-69
2022/06/11 03:04:03;;;;;;;0.00;0.00;;;21.60;77.40;;;;;;4213007;28;20079;-69
2022/06/11 03:06:26;;;;;;;0.00;0.00;;;21.60;77.40;;;;;;4213190;28;20139;-69
2022/06/11 03:08:50;;;;;;;0.00;0.00;;;21.60;77.40;;;;;;4213676;28;20063;-70
2022/06/11 03:11:12;;;;;;;0.00;0.00;;;21.60;77.40;;;;;;4213367;28;20599;-70
2022/06/11 03:13:34;;;;;;;0.00;0.00;;;21.60;77.40;;;;;;4212766;28;20109;-69
2022/06/11 03:15:56;;;;;;;0.00;0.00;;;21.60;77.30;;;;;;4213985;28;20115;-69
2022/06/11 03:18:18;;;;;;;0.28;0.28;;;21.60;77.30;;;;;;4213060;28;20051;-69
2022/06/11 03:20:41;;;;;;;0.30;0.30;;;21.60;77.30;;;;;;4212975;28;20526;-69
2022/06/11 03:23:03;;;;;;;0.00;0.00;;;21.60;77.30;;;;;;4213661;28;20522;-69
2022/06/11 03:25:26;;;;;;;0.00;0.00;;;21.50;77.20;;;;;;4212912;28;20147;-69
2022/06/11 03:27:48;;;;;;;0.17;0.17;;;21.50;77.20;;;;;;4213747;28;20126;-69
2022/06/11 03:30:12;;;;;;;0.00;0.00;;;21.50;77.20;;;;;;4213822;28;20048;-69
2022/06/11 03:32:35;;;;;;;0.00;0.00;;;21.50;77.20;;;;;;4213698;28;20044;-70
2022/06/11 03:34:57;;;;;;;5.93;2.05;;;21.50;77.20;;;;;;4213827;28;20056;-70
2022/06/11 03:37:19;;;;;;;0.00;0.00;;;21.50;77.20;;;;;;4213746;28;20105;-69
2022/06/11 03:39:42;;;;;;;0.38;0.38;;;21.50;77.20;;;;;;4213751;28;20420;-69
2022/06/11 03:42:07;;;;;;;0.00;0.00;;;21.50;77.20;;;;;;4213130;28;20101;-69
2022/06/11 03:44:30;;;;;;;0.00;0.00;;;21.50;77.30;;;;;;4213817;28;20508;-69
2022/06/11 03:46:52;;;;;;;0.00;0.00;;;21.50;77.40;;;;;;4213716;28;20845;-69
2022/06/11 03:49:14;;;;;;;0.00;0.00;;;21.50;77.30;;;;;;4213785;28;20079;-69
2022/06/11 03:51:36;;;;;;;0.63;0.52;;;21.50;77.20;;;;;;4213404;28;20476;-68
2022/06/11 03:53:58;;;;;;;0.00;0.00;;;21.50;77.30;;;;;;4195764;28;20056;-68
2022/06/11 03:56:20;;;;;;;0.00;0.00;;;21.50;77.20;;;;;;4196414;28;20048;-69
2022/06/11 03:58:46;;;;;;;0.47;0.47;;;21.50;77.40;;;;;;4196830;28;20062;-69
2022/06/11 04:01:18;;;;;;;0.00;0.00;;;21.50;78.30;;;;;;4195613;28;20063;-68
2022/06/11 04:03:41;;;;;;;0.00;0.00;;;21.50;77.40;;;;;;4212655;28;20113;-68
2022/06/11 04:06:05;;;;;;;0.00;0.00;;;21.50;77.20;;;;;;4213331;28;20507;-68
2022/06/11 04:08:27;;;;;;;0.00;0.00;;;21.50;77.10;;;;;;4213485;28;20052;-68
2022/06/11 04:10:50;;;;;;;0.00;0.00;;;21.50;77.10;;;;;;4213445;28;20060;-70
2022/06/11 04:13:13;;;;;;;0.00;0.00;;;21.50;77.00;;;;;;4213038;28;20052;-69
2022/06/11 04:15:36;;;;;;;0.45;0.45;;;21.50;77.40;;;;;;4213298;28;20101;-70
2022/06/11 04:18:00;;;;;;;0.08;0.08;;;21.50;77.20;;;;;;4214348;28;20055;-69
2022/06/11 04:20:22;;;;;;;0.00;0.00;;;21.50;78.00;;;;;;4216928;28;20071;-69
2022/06/11 04:22:45;;;;;;;0.00;0.00;;;21.50;77.00;;;;;;4216229;28;20113;-69
2022/06/11 04:25:08;;;;;;;0.00;0.00;;;21.50;77.00;;;;;;4215493;28;20169;-69
2022/06/11 04:27:30;;;;;;;0.00;0.00;;;21.50;76.90;;;;;;4215434;28;20447;-70
2022/06/11 04:29:57;;;;;;;0.00;0.00;;;21.50;77.00;;;;;;4207669;28;20489;-70
2022/06/11 04:32:21;;;;;;;0.00;0.00;;;21.50;77.00;;;;;;4216613;28;20534;-71
2022/06/11 04:34:46;;;;;;;0.00;0.00;;;21.40;77.00;;;;;;4216407;28;20092;-71
2022/06/11 04:37:13;;;;;;;0.00;0.00;;;21.50;77.10;;;;;;4216464;28;20052;-70
2022/06/11 04:39:35;;;;;;;0.13;0.13;;;21.40;77.00;;;;;;4215468;28;20048;-70
2022/06/11 04:41:57;;;;;;;0.00;0.00;;;21.50;77.00;;;;;;4216172;28;20131;-69
2022/06/11 04:44:20;;;;;;;0.00;0.00;;;21.50;76.90;;;;;;4203196;28;20048;-69
2022/06/11 04:46:42;;;;;;;0.00;0.00;;;21.50;76.90;;;;;;4216492;28;20078;-69
2022/06/11 04:49:06;;;;;;;0.00;0.00;;;21.50;76.90;;;;;;4216518;28;20525;-70
2022/06/11 04:51:29;;;;;;;0.00;0.00;;;21.50;76.70;;;;;;4200565;28;20098;-69
2022/06/11 04:53:51;;;;;;;0.38;0.38;;;21.50;76.60;;;;;;4216404;28;20480;-70
2022/06/11 04:56:14;;;;;;;0.00;0.00;;;21.50;76.60;;;;;;4215959;28;20066;-69
2022/06/11 04:58:37;;;;;;;0.00;0.00;;;21.50;76.60;;;;;;4215665;28;20051;-69
2022/06/11 05:00:59;;;;;;;0.00;0.00;;;21.50;76.60;;;;;;4200515;28;20154;-69
2022/06/11 05:03:21;;;;;;;0.00;0.00;;;21.50;76.50;;;;;;4216078;28;20130;-70
2022/06/11 05:05:45;;;;;;;0.00;0.00;;;21.50;76.50;;;;;;4216212;28;20060;-70
2022/06/11 05:08:07;;;;;;;0.00;0.00;;;21.50;76.30;;;;;;4216073;28;20380;-69
2022/06/11 05:10:31;;;;;;;0.00;0.00;;;21.50;76.30;;;;;;4216070;28;20393;-69
2022/06/11 05:12:59;;;;;;;0.00;0.00;;;21.50;76.20;;;;;;4215105;28;20052;-69
2022/06/11 05:15:21;;;;;;;0.00;0.00;;;21.50;77.10;;;;;;4215721;28;20052;-69
2022/06/11 05:17:44;;;;;;;0.00;0.00;;;21.50;76.20;;;;;;4216010;28;20044;-69
2022/06/11 05:20:08;;;;;;;0.10;0.10;;;21.60;76.20;;;;;;4215967;28;20458;-70
2022/06/11 05:22:32;;;;;;;0.00;0.00;;;21.70;75.80;;;;;;4215775;28;20519;-71
2022/06/11 05:24:54;;;;;;;0.00;0.00;;;21.70;75.40;;;;;;4215985;28;20072;-73
2022/06/11 05:27:20;;;;;;;2.75;2.03;;;21.80;75.00;;;;;;4215757;28;20052;-70
2022/06/11 05:29:48;;;;;;;0.55;0.55;;;21.90;74.50;;;;;;4214027;28;20056;-70
2022/06/11 05:32:10;;;;;;;0.85;0.50;;;21.90;74.00;;;;;;4214017;28;20101;-70
2022/06/11 05:34:32;;;;;;;0.00;0.00;;;22.00;73.40;;;;;;4215513;28;20479;-71
2022/06/11 05:36:55;;;;;;;6.50;1.42;;;22.10;72.80;;;;;;4215428;28;20115;-71
2022/06/11 05:39:18;;;;;;;0.00;0.00;;;22.10;72.20;;;;;;4215399;28;20519;-71
2022/06/11 05:41:40;;;;;;;0.00;0.00;;;22.10;71.80;;;;;;4215286;28;20147;-70
2022/06/11 05:44:02;;;;;;;0.00;0.00;;;22.10;71.50;;;;;;4213974;28;20078;-71
2022/06/11 05:46:27;;;;;;;0.10;0.10;;;22.20;71.40;;;;;;4213495;28;20048;-70
2022/06/11 05:48:52;;;;;;;0.40;0.40;;;22.20;71.10;;;;;;4215412;28;20101;-70
2022/06/11 05:51:16;;;;;;;0.00;0.00;;;22.10;70.80;;;;;;4215453;28;20060;-70
2022/06/11 05:53:41;;;;;;;15.18;0.45;;;22.10;70.60;;;;;;4215457;28;20052;-70
2022/06/11 05:56:06;;;;;;;0.38;0.38;;;22.10;70.60;;;;;;4214103;28;20121;-69
2022/06/11 05:58:33;;;;;;;0.00;0.00;;;22.10;70.70;;;;;;4215185;28;20704;-69
2022/06/11 06:00:57;;;;;;;0.00;0.00;;;22.00;71.60;;;;;;4215068;28;20071;-68
2022/06/11 06:03:18;;;;;;;0.00;0.00;;;22.00;70.70;;;;;;4215294;28;20059;-68
2022/06/11 06:05:41;;;;;;;0.00;0.00;;;22.00;70.60;;;;;;4198490;28;20082;-68
2022/06/11 06:08:04;;;;;;;0.43;0.43;;;22.00;70.50;;;;;;4198392;28;20551;-67
2022/06/11 06:10:26;;;;;;;0.00;0.00;;;22.00;70.50;;;;;;4197281;28;20107;-70
2022/06/11 06:12:50;;;;;;;0.00;0.00;;;22.00;70.50;;;;;;4198070;28;20570;-70
2022/06/11 06:15:15;;;;;;;0.03;0.03;;;22.00;71.50;;;;;;4198165;28;20524;-70
2022/06/11 06:17:37;;;;;;;0.00;0.00;;;22.00;70.40;;;;;;4197909;28;20412;-71
2022/06/11 06:19:59;;;;;;;1.23;1.13;;;22.00;70.30;;;;;;4198104;28;20118;-71
2022/06/11 06:22:21;;;;;;;0.25;0.25;;;22.00;70.20;;;;;;4198302;28;20112;-71
2022/06/11 06:24:47;;;;;;;0.00;0.00;;;22.00;70.10;;;;;;4198079;28;20106;-70
2022/06/11 06:27:09;;;;;;;1.02;1.02;;;22.00;69.90;;;;;;4198107;28;20053;-70
2022/06/11 06:29:32;;;;;;;0.00;0.00;;;22.10;69.90;;;;;;4198076;28;20524;-70
2022/06/11 06:31:54;;;;;;;0.75;0.38;;;22.10;69.80;;;;;;4197620;28;20080;-71
2022/06/11 06:34:16;;;;;;;0.00;0.00;;;22.00;69.70;;;;;;4206888;28;20139;-71
2022/06/11 06:36:38;;;;;;;0.17;0.17;;;22.10;69.70;;;;;;4214503;28;20067;-70
2022/06/11 06:39:00;;;;;;;0.00;0.00;;;22.10;69.60;;;;;;4214653;28;20079;-70
2022/06/11 06:41:23;;;;;;;0.00;0.00;;;22.20;69.50;;;;;;4214593;28;20079;-69
2022/06/11 06:43:45;;;;;;;0.00;0.00;;;22.20;69.30;;;;;;4214598;28;20074;-70
2022/06/11 06:46:09;;;;;;;5.35;0.65;;;22.30;69.00;;;;;;4199291;28;20143;-69
2022/06/11 06:48:31;;;;;;;1.92;1.55;;;22.30;68.90;;;;;;4213840;28;20192;-70
2022/06/11 06:50:54;;;;;;;0.00;0.00;;;22.30;68.70;;;;;;4214427;28;20442;-69
2022/06/11 06:53:16;;;;;;;0.00;0.00;;;22.40;68.60;;;;;;4214431;28;20141;-69
2022/06/11 06:55:38;;;;;;;0.00;0.00;;;22.40;68.30;;;;;;4213278;28;20802;-69
2022/06/11 06:58:00;;;;;;;0.00;0.00;;;22.50;68.10;;;;;;4214442;28;20503;-70
2022/06/11 07:00:22;;;;;;;0.00;0.00;;;22.60;67.90;;;;;;4213955;28;20414;-69
2022/06/11 07:02:45;;;;;;;0.00;0.00;;;22.60;67.70;;;;;;4213419;28;20480;-70
2022/06/11 07:05:09;;;;;;;6.75;2.40;;;22.60;67.40;;;;;;4213899;28;20389;-70
2022/06/11 07:07:33;;;;;;;0.00;0.00;;;22.70;67.20;;;;;;4214060;28;20121;-69
2022/06/11 07:09:57;;;;;;;0.28;0.28;;;22.70;67.80;;;;;;4214303;28;20113;-70
2022/06/11 07:12:19;;;;;;;0.30;0.30;;;22.80;66.80;;;;;;4213953;28;20133;-71
2022/06/11 07:14:41;;;;;;;0.35;0.35;;;22.80;66.70;;;;;;4214235;28;20409;-70
2022/06/11 07:17:06;;;;;;;0.00;0.00;;;22.80;66.60;;;;;;4214187;28;20093;-68
2022/06/11 07:19:33;;;;;;;1.08;1.08;;;22.80;66.40;;;;;;4213503;28;20048;-67
2022/06/11 07:22:01;;;;;;;0.10;0.10;;;22.90;66.30;;;;;;4213989;28;20064;-66
2022/06/11 07:24:28;;;;;;;0.40;0.40;;;22.80;66.20;;;;;;4213995;28;20084;-66
2022/06/11 07:26:53;;;;;;;0.65;0.65;;;22.90;66.30;;;;;;4213883;28;20416;-69
2022/06/11 07:29:20;;;;;;;0.28;0.28;;;22.90;66.30;;;;;;4213998;28;20081;-68
2022/06/11 07:31:44;;;;;;;0.10;0.10;;;22.90;66.50;;;;;;4213875;28;20128;-69
2022/06/11 07:34:07;;;;;;;0.10;0.10;;;22.90;66.60;;;;;;4213280;28;20117;-69
2022/06/11 07:36:30;;;;;;;0.03;0.03;;;22.90;66.60;;;;;;4213932;28;20059;-69
2022/06/11 07:38:52;;;;;;;0.10;0.10;;;22.90;66.50;;;;;;4213753;28;20109;-68
2022/06/11 07:41:15;;;;;;;0.52;0.52;;;22.90;67.40;;;;;;4212754;28;20385;-68
2022/06/11 07:43:36;;;;;;;0.20;0.20;;;23.00;66.40;;;;;;4213647;28;20109;-68
2022/06/11 07:45:59;;;;;;;0.55;0.55;;;23.00;66.30;;;;;;4213838;28;20113;-68
2022/06/11 07:48:22;;;;;;;1.45;1.42;;;22.90;66.20;;;;;;4212547;28;20821;-69
2022/06/11 07:50:46;;;;;;;0.90;0.80;;;22.90;66.20;;;;;;4213157;28;20078;-69
2022/06/11 07:53:11;;;;;;;0.00;0.00;;;22.90;66.20;;;;;;4213331;28;20056;-69
2022/06/11 07:55:35;;;;;;;0.13;0.13;;;22.90;66.20;;;;;;4213701;28;20086;-69
2022/06/11 07:57:58;;;;;;;0.30;0.30;;;22.90;66.30;;;;;;4213483;28;20056;-69
2022/06/11 08:00:23;;;;;;;0.70;0.70;;;22.90;66.20;;;;;;4213579;28;20055;-69
2022/06/11 08:02:46;;;;;;;5.15;3.25;;;22.90;66.20;;;;;;4212440;28;20056;-70
2022/06/11 08:05:09;;;;;;;0.05;0.05;;;22.90;66.10;;;;;;4212931;28;20059;-69
2022/06/11 08:07:31;;;;;;;1.50;1.40;;;22.90;66.20;;;;;;4212540;28;20083;-68
2022/06/11 08:09:57;;;;;;;0.20;0.20;;;22.90;66.30;;;;;;4213410;28;20712;-69
2022/06/11 08:12:19;;;;;;;0.00;0.00;;;22.90;66.30;;;;;;4213439;28;20143;-69
2022/06/11 08:14:41;;;;;;;0.00;0.00;;;22.90;66.40;;;;;;4213505;28;20114;-68
2022/06/11 08:17:04;;;;;;;0.55;0.55;;;22.90;66.30;;;;;;4213582;28;20052;-68
2022/06/11 08:19:26;;;;;;;0.00;0.00;;;22.90;66.50;;;;;;4213502;28;20364;-68
2022/06/11 08:21:48;;;;;;;0.35;0.35;;;22.90;66.60;;;;;;4212514;28;20071;-69
2022/06/11 08:24:10;;;;;;;0.20;0.20;;;22.90;66.60;;;;;;4212074;28;20052;-68
2022/06/11 08:26:33;;;;;;;0.13;0.13;;;22.90;66.50;;;;;;4212782;28;20063;-69
2022/06/11 08:28:55;;;;;;;0.95;0.95;;;22.90;66.40;;;;;;4213217;28;20105;-69
2022/06/11 08:31:17;;;;;;;0.15;0.15;;;22.90;66.30;;;;;;4213402;28;20431;-69
2022/06/11 08:33:39;;;;;;;0.30;0.30;;;22.90;66.30;;;;;;4213208;28;20055;-68
2022/06/11 08:36:03;;;;;;;0.00;0.00;;;22.90;66.10;;;;;;4213174;28;20101;-69
2022/06/11 08:38:25;;;;;;;6.75;1.50;;;22.90;65.90;;;;;;4212667;28;20067;-69
2022/06/11 08:40:49;;;;;;;0.20;0.20;;;22.90;65.90;;;;;;4213056;28;20055;-69
2022/06/11 08:43:22;;;;;;;3.38;1.35;;;22.90;65.70;;;;;;4213178;28;20051;-69
2022/06/11 08:45:47;;;;;;;0.20;0.20;;;22.90;65.60;;;;;;4213189;28;20064;-69
2022/06/11 08:48:16;;;;;;;3.10;1.17;;;22.90;65.40;;;;;;4212075;28;20056;-69
2022/06/11 08:50:43;;;;;;;0.00;0.00;;;23.00;65.30;;;;;;4212280;28;20044;-70
2022/06/11 08:53:07;;;;;;;0.43;0.43;;;23.00;65.00;;;;;;4212303;28;20063;-69
2022/06/11 08:55:34;;;;;;;0.00;0.00;;;23.00;64.90;;;;;;4211726;28;20101;-70
2022/06/11 08:58:06;;;;;;;0.00;0.00;;;22.90;64.60;;;;;;4220315;28;20047;-69
2022/06/11 09:00:36;;;;;;;0.55;0.55;;;23.00;64.50;;;;;;4229548;28;20384;-69
2022/06/11 09:03:15;;;;;;;0.10;0.10;;;22.90;64.50;;;;;;4227093;28;20093;-76
2022/06/11 09:05:57;;;;;;;0.00;0.00;;;23.00;65.30;;;;;;4207647;28;20059;-75
2022/06/11 09:08:40;;;;;;;0.03;0.03;;;23.00;64.30;;;;;;4218720;28;20062;-75
2022/06/11 09:11:12;;;;;;;0.00;0.00;;;22.90;64.20;;;;;;4216091;28;20075;-74
2022/06/11 09:14:01;;;;;;;0.30;0.30;;;22.90;64.30;;;;;;4224499;28;20134;-75
2022/06/11 09:16:38;;;;;;;0.47;0.47;;;22.90;64.50;;;;;;4232972;28;20412;-75
2022/06/11 09:19:13;;;;;;;0.13;0.13;;;22.90;64.70;;;;;;4223435;28;20484;-75
2022/06/11 09:21:47;;;;;;;0.08;0.08;;;22.90;65.40;;;;;;4199344;28;20049;-72
2022/06/11 09:24:35;;;;;;;0.00;0.00;;;22.90;64.30;;;;;;4203937;28;20054;-73
2022/06/11 09:27:01;;;;;;;0.10;0.10;;;22.90;64.30;;;;;;4215714;28;20052;-73
2022/06/11 09:29:30;;;;;;;0.17;0.17;;;22.90;64.30;;;;;;4214696;28;20060;-74
2022/06/11 09:31:59;;;;;;;0.00;0.00;;;22.80;64.30;;;;;;4214786;28;20538;-75
2022/06/11 09:34:29;;;;;;;0.00;0.00;;;22.90;64.40;;;;;;4215670;28;20062;-75
2022/06/11 09:36:58;;;;;;;0.25;0.25;;;22.90;64.30;;;;;;4215812;28;20166;-74
2022/06/11 09:39:36;;;;;;;0.85;0.85;;;22.90;64.20;;;;;;4213570;28;20052;-74
2022/06/11 09:42:27;;;;;;;0.20;0.20;;;22.90;63.70;;;;;;4227799;28;20140;-73
2022/06/11 09:44:56;;;;;;;0.03;0.03;;;22.90;63.10;;;;;;4232150;27;20249;-74
2022/06/11 09:47:34;;;;;;;0.10;0.10;;;22.90;62.50;;;;;;4232309;27;20174;-74
2022/06/11 09:50:04;;;;;;;8.82;1.98;;;22.90;62.20;;;;;;4201742;28;20044;-74
2022/06/11 09:52:35;;;;;;;1.20;1.15;;;22.90;62.00;;;;;;4213251;28;20514;-75
2022/06/11 09:55:08;;;;;;;0.00;0.00;;;22.90;61.80;;;;;;4231285;28;20587;-74
2022/06/11 09:57:41;;;;;;;0.30;0.30;;;23.00;61.60;;;;;;4208570;28;20067;-72
2022/06/11 10:00:11;;;;;;;0.32;0.32;;;23.00;61.10;;;;;;4215278;28;20052;-73
2022/06/11 10:02:44;;;;;;;1.40;1.30;;;23.00;61.20;;;;;;4214992;28;20139;-73
2022/06/11 10:05:14;;;;;;;0.00;0.00;;;23.10;61.10;;;;;;4204404;28;20079;-74
2022/06/11 10:07:43;;;;;;;0.00;0.00;;;23.00;61.00;;;;;;4218268;28;20804;-73
2022/06/11 10:10:13;;;;;;;0.30;0.30;;;23.10;62.10;;;;;;4231782;28;20496;-73
2022/06/11 10:12:41;;;;;;;0.00;0.00;;;23.10;60.90;;;;;;4194765;28;20828;-73
2022/06/11 10:15:16;;;;;;;0.13;0.13;;;23.10;60.70;;;;;;4201118;28;20578;-73
2022/06/11 10:17:50;;;;;;;0.00;0.00;;;23.10;60.80;;;;;;4213717;28;20137;-73
2022/06/11 10:20:17;;;;;;;1.35;0.63;;;23.10;60.80;;;;;;4214854;28;20059;-74
2022/06/11 10:22:46;;;;;;;0.00;0.00;;;23.20;60.90;;;;;;4218323;28;20129;-74
2022/06/11 10:25:20;;;;;;;0.43;0.43;;;23.20;61.00;;;;;;4214917;28;20128;-75
2022/06/11 10:27:46;;;;;;;4.53;2.60;;;23.10;60.30;;;;;;4215732;28;20071;-75
2022/06/11 10:30:19;;;;;;;0.00;0.00;;;23.20;60.20;;;;;;4230616;28;20056;-71
2022/06/11 10:32:48;;;;;;;0.00;0.00;;;23.20;61.00;;;;;;4200085;28;20147;-71
2022/06/11 10:35:20;;;;;;;0.10;0.10;;;23.20;59.70;;;;;;4208100;28;20071;-73
2022/06/11 10:37:46;;;;;;;0.10;0.10;;;23.20;59.50;;;;;;4230987;28;20130;-70
2022/06/11 10:40:17;;;;;;;0.00;0.00;;;23.20;59.50;;;;;;4230986;28;20568;-70
2022/06/11 10:42:41;;;;;;;;;;;23.20;59.40;;;;;;4199176;28;20139;-71
2022/06/11 10:45:05;;;;;;;0.05;0.05;;;23.20;58.80;;;;;;4198160;28;20357;-70
2022/06/11 10:47:30;;;;;;;0.65;0.65;;;23.20;58.10;;;;;;4196421;28;20076;-71
2022/06/11 10:50:01;;;;;;;0.10;0.10;;;23.20;58.00;;;;;;4200627;28;20131;-70
2022/06/11 10:52:34;;;;;;;0.20;0.20;;;23.10;58.50;;;;;;4228351;28;20059;-73
2022/06/11 10:54:55;;;;;;;2.42;1.80;;;23.10;57.30;;;;;;4229394;28;20101;-70
2022/06/11 10:57:25;;;;;;;0.28;0.28;;;23.10;57.10;;;;;;4228402;27;20067;-70
2022/06/11 10:59:52;;;;;;;0.15;0.15;;;23.10;57.30;;;;;;4230633;28;20048;-71
2022/06/11 11:02:24;;;;;;;0.10;0.10;;;23.10;57.80;;;;;;4217023;27;20071;-70
2022/06/11 11:04:56;;;;;;;;;;;23.20;58.00;;;;;;4215726;28;20105;-70
2022/06/11 11:07:20;;;;;;;0.00;0.00;;;23.20;58.20;;;;;;4215288;28;19974;-70
2022/06/11 11:09:43;;;;;;;0.00;0.00;;;23.20;58.20;;;;;;4223165;28;20500;-70
2022/06/11 11:12:15;;;;;;;2.08;0.95;;;23.20;58.30;;;;;;4217429;28;20093;-70
2022/06/11 11:14:41;;;;;;;0.00;0.00;;;23.20;58.20;;;;;;4213677;28;20052;-70
2022/06/11 11:17:06;;;;;;;0.03;0.03;;;23.20;58.10;;;;;;4213894;28;20565;-70
2022/06/11 11:19:32;;;;;;;0.22;0.22;;;23.30;58.30;;;;;;4215239;28;20067;-70
2022/06/11 11:21:58;;;;;;;0.13;0.13;;;23.20;58.10;;;;;;4223981;28;20065;-71
2022/06/11 11:24:24;;;;;;;0.85;0.65;;;23.30;57.60;;;;;;4230664;28;20463;-71
2022/06/11 11:26:50;;;;;;;1.75;1.48;;;23.30;57.50;;;;;;4229503;28;20059;-71
2022/06/11 11:29:17;;;;;;;0.00;0.00;;;23.30;57.40;;;;;;4195342;28;20123;-71
2022/06/11 11:31:45;;;;;;;0.00;0.00;;;23.30;57.40;;;;;;4216776;28;20050;-71
2022/06/11 11:34:14;;;;;;;0.00;0.00;;;23.40;57.30;;;;;;4230251;28;20048;-71
2022/06/11 11:36:36;;;;;;;0.68;0.68;;;23.40;57.40;;;;;;4228038;28;20503;-72
2022/06/11 11:39:23;;;;;;;0.00;0.00;;;23.40;57.50;;;;;;4230336;28;20049;-72
2022/06/11 11:41:52;;;;;;;0.00;0.00;;;23.40;57.80;;;;;;4217244;28;20445;-71
2022/06/11 11:44:18;;;;;;;0.00;0.00;;;23.50;57.90;;;;;;4211164;28;20397;-70
2022/06/11 11:46:40;;;;;;;0.00;0.00;;;23.50;58.00;;;;;;4198282;28;20060;-71
2022/06/11 11:49:06;;;;;;;0.00;0.00;;;23.50;58.20;;;;;;4203331;28;20124;-72
2022/06/11 11:51:33;;;;;;;0.03;0.03;;;23.50;58.40;;;;;;4212436;28;20101;-71
2022/06/11 11:54:04;;;;;;;0.00;0.00;;;23.50;59.10;;;;;;4212725;28;20471;-70
2022/06/11 11:56:32;;;;;;;0.00;0.00;;;23.50;58.50;;;;;;4212421;28;20052;-70
2022/06/11 11:58:58;;;;;;;0.00;0.00;;;23.60;58.70;;;;;;4213724;28;20140;-71
2022/06/11 12:01:22;;;;;;;2.17;1.45;;;23.50;58.70;;;;;;4213361;28;20106;-70
2022/06/11 12:03:48;;;;;;;0.00;0.00;;;23.60;58.80;;;;;;4213664;28;20094;-70
2022/06/11 12:06:14;;;;;;;0.00;0.00;;;23.50;58.80;;;;;;4213521;28;20051;-70
2022/06/11 12:08:42;;;;;;;0.00;0.00;;;23.50;58.90;;;;;;4212240;28;20083;-71
2022/06/11 12:11:06;;;;;;;0.00;0.00;;;23.50;59.00;;;;;;4212403;28;20056;-70
2022/06/11 12:13:32;;;;;;;1.30;0.85;;;23.50;59.00;;;;;;4212905;28;20066;-70
2022/06/11 12:15:57;;;;;;;0.00;0.00;;;23.60;59.10;;;;;;4213277;28;20067;-71
2022/06/11 12:18:22;;;;;;;0.00;0.00;;;23.60;59.90;;;;;;4213355;28;20142;-71
2022/06/11 12:20:48;;;;;;;0.00;0.00;;;23.60;59.20;;;;;;4213462;28;20056;-70
2022/06/11 12:23:22;;;;;;;0.17;0.17;;;23.60;59.20;;;;;;4213249;28;20095;-71
2022/06/11 12:25:48;;;;;;;0.20;0.20;;;23.60;59.10;;;;;;4213386;28;20056;-71
2022/06/11 12:28:14;;;;;;;0.00;0.00;;;23.60;59.20;;;;;;4213457;28;20063;-71
2022/06/11 12:30:38;;;;;;;0.85;0.47;;;23.60;59.00;;;;;;4213290;28;20514;-71
2022/06/11 12:33:00;;;;;;;0.00;0.00;;;23.60;59.10;;;;;;4213394;28;20059;-70
2022/06/11 12:35:37;;;;;;;0.00;0.00;;;23.60;59.10;;;;;;4213361;28;20079;-70
2022/06/11 12:38:09;;;;;;;0.00;0.00;;;23.60;59.00;;;;;;4212347;28;20060;-70
2022/06/11 12:40:40;;;;;;;0.00;0.00;;;23.60;59.00;;;;;;4216471;28;20503;-70
2022/06/11 12:43:15;;;;;;;0.00;0.00;;;23.70;59.00;;;;;;4216166;28;20058;-70